Arkabutla, MS

10:12 AM CDT on May 30, 2015 (GMT -0500)
Oak Manor S/D | | Change Station
CLOSE
Current Station
Personal Weather Station
Location: Hernando, MS
Elevation: 259 ft
Nearby Weather Stations

Elev 259 ft 34.82 °N, 90.04 °W | Updated 2 seconds ago

Overcast
Overcast
78.2 °F
Feels Like 81 °F
N
2.0
Wind Variable Wind from WSW
Gusts 12.0 mph

Today
High -- | Low -- °F
--% Chance of Precip.
Yesterday
High -- | Low -- °F
Precip. -- in
5:48 AM 8:06 PM
Waxing Gibbous, 90% visible
Pressure 30.02 in
Visibility 10.0 miles
Clouds Mostly Cloudy 1700 ft
Mostly Cloudy 2300 ft
Overcast 2900 ft
Heat Index 81 °F
Dew Point 74 °F
Humidity 86%
Rainfall 0.00 in
Snow Depth Not available.
UV 2 out of 12
Pollen 1.00 out of 12
Air Quality Not available.
Flu Activity No Activity
METAR KUTA 301455Z AUTO 22011KT 10SM BKN017 BKN023 OVC029 24/21 A3002 RMK AO2

More Conditions Fewer Conditions

Pressure 30.02 in
Visibility 10.0 miles
Clouds Mostly Cloudy 1700 ft
Mostly Cloudy 2300 ft
Overcast 2900 ft
Heat Index 81 °F
Dew Point 74 °F
Humidity 86%
Rainfall 0.00 in
Snow Depth Not available.
UV 2 out of 12
Pollen 1.00 out of 12
Air Quality Not available.
Flu Activity No Activity
METAR KUTA 301455Z AUTO 22011KT 10SM BKN017 BKN023 OVC029 24/21 A3002 RMK AO2

More Conditions Fewer Conditions

10-Day Weather Forecast

Almanac

Astronomy

May. 30, 2015 Rise Set
Actual Time
Civil Twilight
Nautical Twilight
Astronomical Twilight
Moon
Length of Visible Light
Length of Day
Tomorrow will be .
, % of the Moon is Illuminated

Today's Extremes

State Highs State Lows

Community

WunderPhotos

Upload Photos

1,825,542 photos uploaded!

WunderBlogs® & News

Nearby

Air Quality

  Air Quality AQ Index Pollutant
Not available.

Snow Depth

Station Depth Elevation

Earthquake Activity

City Distance Mag. Time & Date
Minimum magnitude displayed is 2.5.

Coastal Water Temperatures

Place Temperature

Stations

Nearby Weather Stations

Station Location Temp. Windchill Dew Point Humidity Wind Precip. Elev Updated Type